sensor_id;sensor_type;location;lat;lon;timestamp;P1;durP1;ratioP1;P2;durP2;ratioP2
37859;SDS011;23698;52.014;5.190;2022-08-01T00:02:05;9.27;;;6.03;;
37859;SDS011;23698;52.014;5.190;2022-08-01T00:05:12;8.75;;;5.70;;
37859;SDS011;23698;52.014;5.190;2022-08-01T00:08:17;9.80;;;5.90;;
37859;SDS011;23698;52.014;5.190;2022-08-01T00:11:22;11.40;;;6.68;;
37859;SDS011;23698;52.014;5.190;2022-08-01T00:14:29;12.20;;;7.15;;
37859;SDS011;23698;52.014;5.190;2022-08-01T00:17:35;17.13;;;8.20;;
37859;SDS011;23698;52.014;5.190;2022-08-01T00:20:41;13.90;;;8.52;;
37859;SDS011;23698;52.014;5.190;2022-08-01T00:23:45;15.90;;;8.95;;
37859;SDS011;23698;52.014;5.190;2022-08-01T00:26:51;11.82;;;8.15;;
37859;SDS011;23698;52.014;5.190;2022-08-01T00:29:58;16.83;;;9.65;;
37859;SDS011;23698;52.014;5.190;2022-08-01T00:33:17;14.57;;;9.55;;
37859;SDS011;23698;52.014;5.190;2022-08-01T00:36:22;17.23;;;10.95;;
37859;SDS011;23698;52.014;5.190;2022-08-01T00:39:27;18.02;;;10.25;;
37859;SDS011;23698;52.014;5.190;2022-08-01T00:42:33;15.75;;;10.80;;
37859;SDS011;23698;52.014;5.190;2022-08-01T00:45:45;14.73;;;9.45;;
37859;SDS011;23698;52.014;5.190;2022-08-01T00:48:50;18.63;;;11.10;;
37859;SDS011;23698;52.014;5.190;2022-08-01T00:51:55;16.58;;;10.80;;
37859;SDS011;23698;52.014;5.190;2022-08-01T00:55:02;20.83;;;10.93;;
37859;SDS011;23698;52.014;5.190;2022-08-01T00:58:08;17.92;;;11.02;;
37859;SDS011;23698;52.014;5.190;2022-08-01T01:01:16;20.50;;;11.68;;
37859;SDS011;23698;52.014;5.190;2022-08-01T01:04:24;18.05;;;10.07;;
37859;SDS011;23698;52.014;5.190;2022-08-01T01:07:31;18.23;;;10.18;;
37859;SDS011;23698;52.014;5.190;2022-08-01T01:10:54;22.27;;;12.82;;
37859;SDS011;23698;52.014;5.190;2022-08-01T01:14:02;19.10;;;10.13;;
37859;SDS011;23698;52.014;5.190;2022-08-01T01:17:17;19.60;;;10.35;;
37859;SDS011;23698;52.014;5.190;2022-08-01T01:20:47;19.42;;;10.00;;
37859;SDS011;23698;52.014;5.190;2022-08-01T01:24:02;21.35;;;10.55;;
37859;SDS011;23698;52.014;5.190;2022-08-01T01:27:18;21.48;;;10.40;;
37859;SDS011;23698;52.014;5.190;2022-08-01T01:30:30;23.90;;;10.98;;
37859;SDS011;23698;52.014;5.190;2022-08-01T01:33:38;17.05;;;10.43;;
37859;SDS011;23698;52.014;5.190;2022-08-01T01:36:51;23.40;;;11.77;;
37859;SDS011;23698;52.014;5.190;2022-08-01T01:39:59;22.73;;;12.23;;
37859;SDS011;23698;52.014;5.190;2022-08-01T01:43:06;21.92;;;12.57;;
37859;SDS011;23698;52.014;5.190;2022-08-01T01:46:17;26.98;;;12.50;;
37859;SDS011;23698;52.014;5.190;2022-08-01T01:49:27;21.13;;;11.35;;
37859;SDS011;23698;52.014;5.190;2022-08-01T01:52:33;21.75;;;10.43;;
37859;SDS011;23698;52.014;5.190;2022-08-01T01:55:43;22.38;;;10.93;;
37859;SDS011;23698;52.014;5.190;2022-08-01T01:58:53;20.10;;;10.48;;
37859;SDS011;23698;52.014;5.190;2022-08-01T02:02:03;21.35;;;11.50;;
37859;SDS011;23698;52.014;5.190;2022-08-01T02:05:11;28.33;;;12.10;;
37859;SDS011;23698;52.014;5.190;2022-08-01T02:08:17;21.95;;;11.23;;
37859;SDS011;23698;52.014;5.190;2022-08-01T02:11:23;34.05;;;13.30;;
37859;SDS011;23698;52.014;5.190;2022-08-01T02:14:28;24.55;;;12.60;;
37859;SDS011;23698;52.014;5.190;2022-08-01T02:17:37;24.08;;;12.88;;
37859;SDS011;23698;52.014;5.190;2022-08-01T02:20:47;19.30;;;10.55;;
37859;SDS011;23698;52.014;5.190;2022-08-01T02:23:59;17.15;;;9.07;;
37859;SDS011;23698;52.014;5.190;2022-08-01T02:27:10;18.33;;;9.18;;
37859;SDS011;23698;52.014;5.190;2022-08-01T02:30:17;17.60;;;8.85;;
37859;SDS011;23698;52.014;5.190;2022-08-01T02:33:27;19.33;;;7.97;;
37859;SDS011;23698;52.014;5.190;2022-08-01T02:36:38;14.73;;;8.43;;
37859;SDS011;23698;52.014;5.190;2022-08-01T02:39:44;15.45;;;8.13;;
37859;SDS011;23698;52.014;5.190;2022-08-01T02:42:52;11.93;;;6.60;;
37859;SDS011;23698;52.014;5.190;2022-08-01T02:46:01;19.08;;;7.95;;
37859;SDS011;23698;52.014;5.190;2022-08-01T02:49:10;14.82;;;7.55;;
37859;SDS011;23698;52.014;5.190;2022-08-01T02:52:16;17.17;;;8.13;;
37859;SDS011;23698;52.014;5.190;2022-08-01T02:55:23;16.67;;;8.27;;
37859;SDS011;23698;52.014;5.190;2022-08-01T02:58:29;16.48;;;8.48;;
37859;SDS011;23698;52.014;5.190;2022-08-01T03:01:36;18.20;;;9.02;;
37859;SDS011;23698;52.014;5.190;2022-08-01T03:04:46;16.17;;;9.48;;
37859;SDS011;23698;52.014;5.190;2022-08-01T03:07:59;20.23;;;9.82;;
37859;SDS011;23698;52.014;5.190;2022-08-01T03:11:06;15.85;;;10.93;;
37859;SDS011;23698;52.014;5.190;2022-08-01T03:14:13;18.95;;;10.45;;
37859;SDS011;23698;52.014;5.190;2022-08-01T03:17:21;22.55;;;13.10;;
37859;SDS011;23698;52.014;5.190;2022-08-01T03:20:31;18.15;;;11.18;;
37859;SDS011;23698;52.014;5.190;2022-08-01T03:23:37;18.80;;;10.80;;
37859;SDS011;23698;52.014;5.190;2022-08-01T03:26:44;21.50;;;11.00;;
37859;SDS011;23698;52.014;5.190;2022-08-01T03:29:51;20.40;;;10.82;;
37859;SDS011;23698;52.014;5.190;2022-08-01T03:32:59;16.88;;;11.25;;
37859;SDS011;23698;52.014;5.190;2022-08-01T03:36:07;17.42;;;9.98;;
37859;SDS011;23698;52.014;5.190;2022-08-01T03:39:15;15.10;;;9.73;;
37859;SDS011;23698;52.014;5.190;2022-08-01T03:42:24;17.52;;;9.38;;
37859;SDS011;23698;52.014;5.190;2022-08-01T03:45:36;11.05;;;8.23;;
37859;SDS011;23698;52.014;5.190;2022-08-01T03:48:47;12.27;;;7.07;;
37859;SDS011;23698;52.014;5.190;2022-08-01T03:51:55;9.85;;;7.00;;
37859;SDS011;23698;52.014;5.190;2022-08-01T03:55:04;14.35;;;7.50;;
37859;SDS011;23698;52.014;5.190;2022-08-01T03:58:12;15.00;;;7.60;;
37859;SDS011;23698;52.014;5.190;2022-08-01T04:01:18;10.73;;;7.20;;
37859;SDS011;23698;52.014;5.190;2022-08-01T04:04:24;13.57;;;6.63;;
37859;SDS011;23698;52.014;5.190;2022-08-01T04:07:32;16.10;;;7.75;;
37859;SDS011;23698;52.014;5.190;2022-08-01T04:10:39;16.15;;;7.60;;
37859;SDS011;23698;52.014;5.190;2022-08-01T04:13:44;13.00;;;7.18;;
37859;SDS011;23698;52.014;5.190;2022-08-01T04:16:49;11.48;;;7.35;;
37859;SDS011;23698;52.014;5.190;2022-08-01T04:19:55;11.98;;;7.57;;
37859;SDS011;23698;52.014;5.190;2022-08-01T04:23:01;21.50;;;8.30;;
37859;SDS011;23698;52.014;5.190;2022-08-01T04:26:07;11.90;;;7.63;;
37859;SDS011;23698;52.014;5.190;2022-08-01T04:29:14;14.27;;;8.20;;
37859;SDS011;23698;52.014;5.190;2022-08-01T04:32:21;19.52;;;10.02;;
37859;SDS011;23698;52.014;5.190;2022-08-01T04:35:28;18.90;;;10.38;;
37859;SDS011;23698;52.014;5.190;2022-08-01T04:38:57;14.55;;;8.57;;
37859;SDS011;23698;52.014;5.190;2022-08-01T04:42:04;17.50;;;8.52;;
37859;SDS011;23698;52.014;5.190;2022-08-01T04:45:11;13.82;;;8.45;;
37859;SDS011;23698;52.014;5.190;2022-08-01T04:48:17;14.65;;;8.23;;
37859;SDS011;23698;52.014;5.190;2022-08-01T04:51:25;11.80;;;8.05;;
37859;SDS011;23698;52.014;5.190;2022-08-01T04:54:33;15.60;;;9.40;;
37859;SDS011;23698;52.014;5.190;2022-08-01T04:57:41;14.88;;;7.95;;
37859;SDS011;23698;52.014;5.190;2022-08-01T05:00:49;14.80;;;7.70;;
37859;SDS011;23698;52.014;5.190;2022-08-01T05:03:54;10.95;;;7.45;;
37859;SDS011;23698;52.014;5.190;2022-08-01T05:07:00;12.77;;;7.70;;
37859;SDS011;23698;52.014;5.190;2022-08-01T05:10:08;12.50;;;7.13;;
37859;SDS011;23698;52.014;5.190;2022-08-01T05:13:14;11.57;;;7.63;;
37859;SDS011;23698;52.014;5.190;2022-08-01T05:16:19;13.60;;;8.15;;
37859;SDS011;23698;52.014;5.190;2022-08-01T05:19:24;16.38;;;7.22;;
37859;SDS011;23698;52.014;5.190;2022-08-01T05:22:30;13.73;;;7.90;;
37859;SDS011;23698;52.014;5.190;2022-08-01T05:25:36;13.65;;;7.97;;
37859;SDS011;23698;52.014;5.190;2022-08-01T05:29:02;11.98;;;7.80;;
37859;SDS011;23698;52.014;5.190;2022-08-01T05:32:07;12.85;;;7.25;;
37859;SDS011;23698;52.014;5.190;2022-08-01T05:35:13;15.90;;;7.82;;
37859;SDS011;23698;52.014;5.190;2022-08-01T05:38:18;14.20;;;8.10;;
37859;SDS011;23698;52.014;5.190;2022-08-01T05:41:24;10.30;;;6.90;;
37859;SDS011;23698;52.014;5.190;2022-08-01T05:44:30;15.13;;;7.28;;
37859;SDS011;23698;52.014;5.190;2022-08-01T05:47:36;10.55;;;7.28;;
37859;SDS011;23698;52.014;5.190;2022-08-01T05:50:45;18.00;;;13.57;;
37859;SDS011;23698;52.014;5.190;2022-08-01T05:53:51;5.53;;;3.67;;
37859;SDS011;23698;52.014;5.190;2022-08-01T05:56:58;4.63;;;2.33;;
37859;SDS011;23698;52.014;5.190;2022-08-01T06:00:06;2.55;;;2.22;;
37859;SDS011;23698;52.014;5.190;2022-08-01T06:03:15;2.00;;;1.65;;
37859;SDS011;23698;52.014;5.190;2022-08-01T06:06:20;4.45;;;2.40;;
37859;SDS011;23698;52.014;5.190;2022-08-01T06:09:28;2.33;;;2.08;;
37859;SDS011;23698;52.014;5.190;2022-08-01T06:12:36;3.88;;;3.00;;
37859;SDS011;23698;52.014;5.190;2022-08-01T06:15:41;7.55;;;2.90;;
37859;SDS011;23698;52.014;5.190;2022-08-01T06:18:47;4.93;;;3.17;;
37859;SDS011;23698;52.014;5.190;2022-08-01T06:25:03;6.60;;;2.90;;
37859;SDS011;23698;52.014;5.190;2022-08-01T06:28:10;4.25;;;2.50;;
37859;SDS011;23698;52.014;5.190;2022-08-01T06:31:15;3.47;;;2.40;;
37859;SDS011;23698;52.014;5.190;2022-08-01T06:34:20;2.63;;;2.40;;
37859;SDS011;23698;52.014;5.190;2022-08-01T06:37:28;3.78;;;2.58;;
37859;SDS011;23698;52.014;5.190;2022-08-01T06:40:33;2.90;;;2.58;;
37859;SDS011;23698;52.014;5.190;2022-08-01T06:43:40;2.80;;;2.40;;
37859;SDS011;23698;52.014;5.190;2022-08-01T06:46:46;3.00;;;2.30;;
37859;SDS011;23698;52.014;5.190;2022-08-01T06:49:52;3.20;;;2.15;;
37859;SDS011;23698;52.014;5.190;2022-08-01T06:52:57;3.20;;;2.25;;
37859;SDS011;23698;52.014;5.190;2022-08-01T06:56:02;8.25;;;2.65;;
37859;SDS011;23698;52.014;5.190;2022-08-01T06:59:10;2.90;;;1.98;;
37859;SDS011;23698;52.014;5.190;2022-08-01T07:02:14;3.90;;;2.30;;
37859;SDS011;23698;52.014;5.190;2022-08-01T07:05:20;3.25;;;2.10;;
37859;SDS011;23698;52.014;5.190;2022-08-01T07:08:26;2.92;;;1.98;;
37859;SDS011;23698;52.014;5.190;2022-08-01T07:11:32;5.35;;;2.03;;
37859;SDS011;23698;52.014;5.190;2022-08-01T07:14:38;2.42;;;1.77;;
37859;SDS011;23698;52.014;5.190;2022-08-01T07:17:43;1.77;;;1.48;;
37859;SDS011;23698;52.014;5.190;2022-08-01T07:20:48;1.65;;;1.48;;
37859;SDS011;23698;52.014;5.190;2022-08-01T07:23:55;2.38;;;1.70;;
37859;SDS011;23698;52.014;5.190;2022-08-01T07:27:01;1.55;;;1.45;;
37859;SDS011;23698;52.014;5.190;2022-08-01T07:30:28;1.60;;;1.50;;
37859;SDS011;23698;52.014;5.190;2022-08-01T07:33:33;1.42;;;1.25;;
37859;SDS011;23698;52.014;5.190;2022-08-01T07:36:52;2.65;;;1.60;;
37859;SDS011;23698;52.014;5.190;2022-08-01T07:39:57;2.47;;;1.30;;
37859;SDS011;23698;52.014;5.190;2022-08-01T07:43:03;3.95;;;1.55;;
37859;SDS011;23698;52.014;5.190;2022-08-01T07:46:09;2.63;;;1.80;;
37859;SDS011;23698;52.014;5.190;2022-08-01T07:49:14;5.43;;;2.05;;
37859;SDS011;23698;52.014;5.190;2022-08-01T07:52:20;5.32;;;2.80;;
37859;SDS011;23698;52.014;5.190;2022-08-01T07:55:25;6.50;;;2.63;;
37859;SDS011;23698;52.014;5.190;2022-08-01T07:58:30;8.63;;;3.67;;
37859;SDS011;23698;52.014;5.190;2022-08-01T08:01:40;16.73;;;3.35;;
37859;SDS011;23698;52.014;5.190;2022-08-01T08:04:46;14.35;;;3.35;;
37859;SDS011;23698;52.014;5.190;2022-08-01T08:07:51;13.48;;;3.55;;
37859;SDS011;23698;52.014;5.190;2022-08-01T08:10:57;12.18;;;3.55;;
37859;SDS011;23698;52.014;5.190;2022-08-01T08:14:02;17.20;;;3.50;;
37859;SDS011;23698;52.014;5.190;2022-08-01T08:17:09;13.20;;;3.67;;
37859;SDS011;23698;52.014;5.190;2022-08-01T08:20:14;18.17;;;3.58;;
37859;SDS011;23698;52.014;5.190;2022-08-01T08:23:20;17.48;;;4.00;;
37859;SDS011;23698;52.014;5.190;2022-08-01T08:26:46;16.48;;;4.60;;
37859;SDS011;23698;52.014;5.190;2022-08-01T08:29:55;19.38;;;3.60;;
37859;SDS011;23698;52.014;5.190;2022-08-01T08:33:01;15.15;;;3.10;;
37859;SDS011;23698;52.014;5.190;2022-08-01T08:36:16;14.70;;;3.90;;
37859;SDS011;23698;52.014;5.190;2022-08-01T08:39:21;9.23;;;3.40;;
37859;SDS011;23698;52.014;5.190;2022-08-01T08:42:26;12.10;;;3.50;;
37859;SDS011;23698;52.014;5.190;2022-08-01T08:45:32;11.88;;;4.00;;
37859;SDS011;23698;52.014;5.190;2022-08-01T08:48:59;9.13;;;2.97;;
37859;SDS011;23698;52.014;5.190;2022-08-01T08:52:07;9.23;;;3.53;;
37859;SDS011;23698;52.014;5.190;2022-08-01T08:55:13;9.60;;;2.97;;
37859;SDS011;23698;52.014;5.190;2022-08-01T08:58:22;9.32;;;3.13;;
37859;SDS011;23698;52.014;5.190;2022-08-01T09:01:34;10.55;;;2.97;;
37859;SDS011;23698;52.014;5.190;2022-08-01T09:04:41;13.60;;;2.85;;
37859;SDS011;23698;52.014;5.190;2022-08-01T09:07:46;11.65;;;2.80;;
37859;SDS011;23698;52.014;5.190;2022-08-01T09:10:51;8.73;;;2.70;;
37859;SDS011;23698;52.014;5.190;2022-08-01T09:14:04;9.77;;;2.30;;
37859;SDS011;23698;52.014;5.190;2022-08-01T09:17:11;11.95;;;2.72;;
37859;SDS011;23698;52.014;5.190;2022-08-01T09:20:23;7.13;;;1.98;;
37859;SDS011;23698;52.014;5.190;2022-08-01T09:23:32;10.80;;;2.45;;
37859;SDS011;23698;52.014;5.190;2022-08-01T09:26:38;7.30;;;1.90;;
37859;SDS011;23698;52.014;5.190;2022-08-01T09:29:43;7.75;;;2.30;;
37859;SDS011;23698;52.014;5.190;2022-08-01T09:32:53;8.35;;;1.98;;
37859;SDS011;23698;52.014;5.190;2022-08-01T09:36:01;8.23;;;1.92;;
37859;SDS011;23698;52.014;5.190;2022-08-01T09:39:11;8.88;;;3.00;;
37859;SDS011;23698;52.014;5.190;2022-08-01T09:42:21;9.00;;;2.38;;
37859;SDS011;23698;52.014;5.190;2022-08-01T09:45:32;7.82;;;1.80;;
37859;SDS011;23698;52.014;5.190;2022-08-01T09:48:56;9.23;;;1.90;;
37859;SDS011;23698;52.014;5.190;2022-08-01T09:52:11;8.15;;;1.88;;
37859;SDS011;23698;52.014;5.190;2022-08-01T09:55:20;8.93;;;1.73;;
37859;SDS011;23698;52.014;5.190;2022-08-01T09:58:26;8.48;;;1.90;;
37859;SDS011;23698;52.014;5.190;2022-08-01T10:01:41;10.43;;;1.83;;
37859;SDS011;23698;52.014;5.190;2022-08-01T10:04:49;11.05;;;1.92;;
37859;SDS011;23698;52.014;5.190;2022-08-01T10:08:04;6.75;;;1.95;;
37859;SDS011;23698;52.014;5.190;2022-08-01T10:11:11;12.25;;;2.10;;
37859;SDS011;23698;52.014;5.190;2022-08-01T10:14:19;7.78;;;2.10;;
37859;SDS011;23698;52.014;5.190;2022-08-01T10:17:25;5.57;;;1.80;;
37859;SDS011;23698;52.014;5.190;2022-08-01T10:20:51;8.75;;;2.33;;
37859;SDS011;23698;52.014;5.190;2022-08-01T10:24:02;8.70;;;2.05;;
37859;SDS011;23698;52.014;5.190;2022-08-01T10:27:10;9.38;;;2.35;;
37859;SDS011;23698;52.014;5.190;2022-08-01T10:30:16;7.95;;;1.70;;
37859;SDS011;23698;52.014;5.190;2022-08-01T10:33:26;6.22;;;1.88;;
37859;SDS011;23698;52.014;5.190;2022-08-01T10:36:52;7.95;;;1.90;;
37859;SDS011;23698;52.014;5.190;2022-08-01T10:40:01;7.30;;;1.67;;
37859;SDS011;23698;52.014;5.190;2022-08-01T10:43:28;4.60;;;1.45;;
37859;SDS011;23698;52.014;5.190;2022-08-01T10:46:37;5.70;;;1.70;;
37859;SDS011;23698;52.014;5.190;2022-08-01T10:49:49;6.22;;;1.83;;
37859;SDS011;23698;52.014;5.190;2022-08-01T10:53:09;10.85;;;2.22;;
37859;SDS011;23698;52.014;5.190;2022-08-01T10:56:26;5.35;;;1.65;;
37859;SDS011;23698;52.014;5.190;2022-08-01T10:59:49;6.28;;;1.92;;
37859;SDS011;23698;52.014;5.190;2022-08-01T11:03:04;8.05;;;1.60;;
37859;SDS011;23698;52.014;5.190;2022-08-01T11:06:15;5.20;;;1.50;;
37859;SDS011;23698;52.014;5.190;2022-08-01T11:09:27;7.68;;;1.73;;
37859;SDS011;23698;52.014;5.190;2022-08-01T11:12:41;8.90;;;1.90;;
37859;SDS011;23698;52.014;5.190;2022-08-01T11:15:50;5.95;;;1.30;;
37859;SDS011;23698;52.014;5.190;2022-08-01T11:19:41;6.60;;;1.98;;
37859;SDS011;23698;52.014;5.190;2022-08-01T11:23:15;6.05;;;1.40;;
37859;SDS011;23698;52.014;5.190;2022-08-01T11:26:21;8.00;;;1.60;;
37859;SDS011;23698;52.014;5.190;2022-08-01T11:29:32;3.65;;;1.20;;
37859;SDS011;23698;52.014;5.190;2022-08-01T11:32:45;5.47;;;1.40;;
37859;SDS011;23698;52.014;5.190;2022-08-01T11:36:18;6.25;;;1.20;;
37859;SDS011;23698;52.014;5.190;2022-08-01T11:39:51;5.70;;;1.40;;
37859;SDS011;23698;52.014;5.190;2022-08-01T11:43:20;5.53;;;1.60;;
37859;SDS011;23698;52.014;5.190;2022-08-01T11:46:45;7.55;;;1.65;;
37859;SDS011;23698;52.014;5.190;2022-08-01T11:49:54;4.13;;;1.42;;
37859;SDS011;23698;52.014;5.190;2022-08-01T11:53:03;6.90;;;1.85;;
37859;SDS011;23698;52.014;5.190;2022-08-01T11:56:10;6.18;;;1.77;;
37859;SDS011;23698;52.014;5.190;2022-08-01T11:59:15;5.82;;;1.58;;
37859;SDS011;23698;52.014;5.190;2022-08-01T12:02:24;7.10;;;1.70;;
37859;SDS011;23698;52.014;5.190;2022-08-01T12:05:34;7.47;;;1.77;;
37859;SDS011;23698;52.014;5.190;2022-08-01T12:08:47;8.77;;;1.63;;
37859;SDS011;23698;52.014;5.190;2022-08-01T12:11:53;7.85;;;2.13;;
37859;SDS011;23698;52.014;5.190;2022-08-01T12:14:59;5.75;;;1.40;;
37859;SDS011;23698;52.014;5.190;2022-08-01T12:18:06;5.72;;;1.45;;
37859;SDS011;23698;52.014;5.190;2022-08-01T12:21:12;7.18;;;1.55;;
37859;SDS011;23698;52.014;5.190;2022-08-01T12:24:22;5.75;;;1.10;;
37859;SDS011;23698;52.014;5.190;2022-08-01T12:27:28;2.92;;;0.85;;
37859;SDS011;23698;52.014;5.190;2022-08-01T12:30:36;4.60;;;1.20;;
37859;SDS011;23698;52.014;5.190;2022-08-01T12:33:43;5.00;;;1.23;;
37859;SDS011;23698;52.014;5.190;2022-08-01T12:36:48;2.80;;;0.90;;
37859;SDS011;23698;52.014;5.190;2022-08-01T12:39:56;3.47;;;1.50;;
37859;SDS011;23698;52.014;5.190;2022-08-01T12:43:02;5.30;;;1.48;;
37859;SDS011;23698;52.014;5.190;2022-08-01T12:46:09;3.75;;;1.27;;
37859;SDS011;23698;52.014;5.190;2022-08-01T12:49:19;6.90;;;1.38;;
37859;SDS011;23698;52.014;5.190;2022-08-01T12:52:26;5.72;;;1.30;;
37859;SDS011;23698;52.014;5.190;2022-08-01T12:55:33;4.40;;;1.30;;
37859;SDS011;23698;52.014;5.190;2022-08-01T12:59:07;2.38;;;1.20;;
37859;SDS011;23698;52.014;5.190;2022-08-01T13:02:31;4.55;;;1.17;;
37859;SDS011;23698;52.014;5.190;2022-08-01T13:05:46;4.25;;;1.35;;
37859;SDS011;23698;52.014;5.190;2022-08-01T13:08:53;3.10;;;1.10;;
37859;SDS011;23698;52.014;5.190;2022-08-01T13:12:00;2.90;;;0.88;;
37859;SDS011;23698;52.014;5.190;2022-08-01T13:15:17;6.78;;;1.25;;
37859;SDS011;23698;52.014;5.190;2022-08-01T13:18:28;4.20;;;1.20;;
37859;SDS011;23698;52.014;5.190;2022-08-01T13:21:36;4.97;;;1.48;;
37859;SDS011;23698;52.014;5.190;2022-08-01T13:25:08;4.50;;;1.20;;
37859;SDS011;23698;52.014;5.190;2022-08-01T13:28:19;3.20;;;1.10;;
37859;SDS011;23698;52.014;5.190;2022-08-01T13:31:31;2.95;;;0.98;;
37859;SDS011;23698;52.014;5.190;2022-08-01T13:34:37;2.00;;;0.80;;
37859;SDS011;23698;52.014;5.190;2022-08-01T13:37:42;4.03;;;1.10;;
37859;SDS011;23698;52.014;5.190;2022-08-01T13:40:48;1.83;;;0.90;;
37859;SDS011;23698;52.014;5.190;2022-08-01T13:43:54;3.08;;;1.00;;
37859;SDS011;23698;52.014;5.190;2022-08-01T13:47:02;5.05;;;1.40;;
37859;SDS011;23698;52.014;5.190;2022-08-01T13:50:19;4.75;;;1.13;;
37859;SDS011;23698;52.014;5.190;2022-08-01T13:53:24;2.08;;;0.98;;
37859;SDS011;23698;52.014;5.190;2022-08-01T13:56:29;2.28;;;1.10;;
37859;SDS011;23698;52.014;5.190;2022-08-01T13:59:37;2.42;;;1.05;;
37859;SDS011;23698;52.014;5.190;2022-08-01T14:02:42;3.25;;;1.00;;
37859;SDS011;23698;52.014;5.190;2022-08-01T14:05:48;2.55;;;1.00;;
37859;SDS011;23698;52.014;5.190;2022-08-01T14:09:01;2.83;;;0.98;;
37859;SDS011;23698;52.014;5.190;2022-08-01T14:12:26;3.00;;;0.77;;
37859;SDS011;23698;52.014;5.190;2022-08-01T14:15:34;4.07;;;0.95;;
37859;SDS011;23698;52.014;5.190;2022-08-01T14:18:42;2.95;;;1.05;;
37859;SDS011;23698;52.014;5.190;2022-08-01T14:21:47;3.67;;;1.30;;
37859;SDS011;23698;52.014;5.190;2022-08-01T14:24:53;3.47;;;1.17;;
37859;SDS011;23698;52.014;5.190;2022-08-01T14:28:04;4.07;;;1.20;;
37859;SDS011;23698;52.014;5.190;2022-08-01T14:31:11;4.78;;;1.02;;
37859;SDS011;23698;52.014;5.190;2022-08-01T14:34:15;2.65;;;1.10;;
37859;SDS011;23698;52.014;5.190;2022-08-01T14:37:21;3.03;;;1.17;;
37859;SDS011;23698;52.014;5.190;2022-08-01T14:40:32;3.67;;;1.10;;
37859;SDS011;23698;52.014;5.190;2022-08-01T14:43:37;3.38;;;0.90;;
37859;SDS011;23698;52.014;5.190;2022-08-01T14:46:43;2.55;;;1.00;;
37859;SDS011;23698;52.014;5.190;2022-08-01T14:50:01;2.90;;;1.00;;
37859;SDS011;23698;52.014;5.190;2022-08-01T14:53:07;4.25;;;1.20;;
37859;SDS011;23698;52.014;5.190;2022-08-01T14:56:13;3.88;;;1.20;;
37859;SDS011;23698;52.014;5.190;2022-08-01T14:59:17;1.58;;;0.90;;
37859;SDS011;23698;52.014;5.190;2022-08-01T15:02:26;4.20;;;1.13;;
37859;SDS011;23698;52.014;5.190;2022-08-01T15:05:31;3.85;;;0.90;;
37859;SDS011;23698;52.014;5.190;2022-08-01T15:08:37;3.60;;;1.10;;
37859;SDS011;23698;52.014;5.190;2022-08-01T15:11:42;3.15;;;1.17;;
37859;SDS011;23698;52.014;5.190;2022-08-01T15:14:47;4.43;;;1.08;;
37859;SDS011;23698;52.014;5.190;2022-08-01T15:17:54;3.40;;;1.05;;
37859;SDS011;23698;52.014;5.190;2022-08-01T15:20:59;5.40;;;1.80;;
37859;SDS011;23698;52.014;5.190;2022-08-01T15:24:05;4.00;;;1.00;;
37859;SDS011;23698;52.014;5.190;2022-08-01T15:27:10;4.15;;;1.10;;
37859;SDS011;23698;52.014;5.190;2022-08-01T15:30:16;2.33;;;0.95;;
37859;SDS011;23698;52.014;5.190;2022-08-01T15:33:31;2.75;;;0.80;;
37859;SDS011;23698;52.014;5.190;2022-08-01T15:36:39;6.07;;;1.23;;
37859;SDS011;23698;52.014;5.190;2022-08-01T15:39:47;3.70;;;1.20;;
37859;SDS011;23698;52.014;5.190;2022-08-01T15:42:59;3.33;;;1.23;;
37859;SDS011;23698;52.014;5.190;2022-08-01T15:46:04;2.13;;;0.93;;
37859;SDS011;23698;52.014;5.190;2022-08-01T15:49:14;2.60;;;0.85;;
37859;SDS011;23698;52.014;5.190;2022-08-01T15:52:19;3.58;;;1.60;;
37859;SDS011;23698;52.014;5.190;2022-08-01T15:55:26;3.42;;;1.33;;
37859;SDS011;23698;52.014;5.190;2022-08-01T15:58:31;3.50;;;0.98;;
37859;SDS011;23698;52.014;5.190;2022-08-01T16:01:37;2.53;;;1.00;;
37859;SDS011;23698;52.014;5.190;2022-08-01T16:04:44;4.25;;;1.10;;
37859;SDS011;23698;52.014;5.190;2022-08-01T16:07:49;7.13;;;1.38;;
37859;SDS011;23698;52.014;5.190;2022-08-01T16:11:04;3.03;;;1.23;;
37859;SDS011;23698;52.014;5.190;2022-08-01T16:14:09;1.92;;;0.95;;
37859;SDS011;23698;52.014;5.190;2022-08-01T16:17:14;4.20;;;1.20;;
37859;SDS011;23698;52.014;5.190;2022-08-01T16:20:20;3.20;;;0.98;;
37859;SDS011;23698;52.014;5.190;2022-08-01T16:23:26;3.10;;;1.05;;
37859;SDS011;23698;52.014;5.190;2022-08-01T16:26:31;5.63;;;1.48;;
37859;SDS011;23698;52.014;5.190;2022-08-01T16:29:37;2.33;;;0.88;;
37859;SDS011;23698;52.014;5.190;2022-08-01T16:32:43;1.92;;;0.88;;
37859;SDS011;23698;52.014;5.190;2022-08-01T16:36:03;4.68;;;1.23;;
37859;SDS011;23698;52.014;5.190;2022-08-01T16:39:09;2.10;;;0.98;;
37859;SDS011;23698;52.014;5.190;2022-08-01T16:42:14;3.33;;;1.27;;
37859;SDS011;23698;52.014;5.190;2022-08-01T16:45:20;2.00;;;0.80;;
37859;SDS011;23698;52.014;5.190;2022-08-01T16:48:25;2.95;;;0.80;;
37859;SDS011;23698;52.014;5.190;2022-08-01T16:51:32;3.60;;;0.98;;
37859;SDS011;23698;52.014;5.190;2022-08-01T16:54:50;2.92;;;0.85;;
37859;SDS011;23698;52.014;5.190;2022-08-01T16:57:56;4.40;;;1.17;;
37859;SDS011;23698;52.014;5.190;2022-08-01T17:01:01;3.72;;;0.90;;
37859;SDS011;23698;52.014;5.190;2022-08-01T17:04:27;4.18;;;1.35;;
37859;SDS011;23698;52.014;5.190;2022-08-01T17:07:33;3.17;;;1.30;;
37859;SDS011;23698;52.014;5.190;2022-08-01T17:10:42;4.20;;;2.40;;
37859;SDS011;23698;52.014;5.190;2022-08-01T17:13:47;9.32;;;4.80;;
37859;SDS011;23698;52.014;5.190;2022-08-01T17:16:57;7.93;;;3.70;;
37859;SDS011;23698;52.014;5.190;2022-08-01T17:20:04;5.95;;;1.77;;
37859;SDS011;23698;52.014;5.190;2022-08-01T17:23:11;4.25;;;2.60;;
37859;SDS011;23698;52.014;5.190;2022-08-01T17:26:17;5.30;;;1.40;;
37859;SDS011;23698;52.014;5.190;2022-08-01T17:29:24;2.60;;;1.08;;
37859;SDS011;23698;52.014;5.190;2022-08-01T17:32:30;1.95;;;1.00;;
37859;SDS011;23698;52.014;5.190;2022-08-01T17:35:37;2.10;;;1.38;;
37859;SDS011;23698;52.014;5.190;2022-08-01T17:38:44;5.60;;;2.40;;
37859;SDS011;23698;52.014;5.190;2022-08-01T17:41:49;5.97;;;1.40;;
37859;SDS011;23698;52.014;5.190;2022-08-01T17:44:54;3.00;;;1.02;;
37859;SDS011;23698;52.014;5.190;2022-08-01T17:48:02;2.83;;;1.05;;
37859;SDS011;23698;52.014;5.190;2022-08-01T17:51:08;3.13;;;0.98;;
37859;SDS011;23698;52.014;5.190;2022-08-01T17:54:15;2.53;;;1.17;;
37859;SDS011;23698;52.014;5.190;2022-08-01T17:57:23;4.95;;;2.55;;
37859;SDS011;23698;52.014;5.190;2022-08-01T18:00:28;4.53;;;1.60;;
37859;SDS011;23698;52.014;5.190;2022-08-01T18:03:33;5.45;;;1.75;;
37859;SDS011;23698;52.014;5.190;2022-08-01T18:06:44;8.88;;;5.25;;
37859;SDS011;23698;52.014;5.190;2022-08-01T18:10:03;6.63;;;1.92;;
37859;SDS011;23698;52.014;5.190;2022-08-01T18:13:14;5.97;;;1.35;;
37859;SDS011;23698;52.014;5.190;2022-08-01T18:16:23;4.03;;;2.20;;
37859;SDS011;23698;52.014;5.190;2022-08-01T18:19:28;10.10;;;3.20;;
37859;SDS011;23698;52.014;5.190;2022-08-01T18:22:34;4.10;;;1.67;;
37859;SDS011;23698;52.014;5.190;2022-08-01T18:25:41;2.22;;;1.00;;
37859;SDS011;23698;52.014;5.190;2022-08-01T18:28:47;4.80;;;1.30;;
37859;SDS011;23698;52.014;5.190;2022-08-01T18:31:52;6.43;;;1.38;;
37859;SDS011;23698;52.014;5.190;2022-08-01T18:35:05;5.68;;;1.60;;
37859;SDS011;23698;52.014;5.190;2022-08-01T18:38:16;3.97;;;1.52;;
37859;SDS011;23698;52.014;5.190;2022-08-01T18:41:28;3.85;;;2.13;;
37859;SDS011;23698;52.014;5.190;2022-08-01T18:44:33;8.00;;;2.58;;
37859;SDS011;23698;52.014;5.190;2022-08-01T18:47:39;5.55;;;2.53;;
37859;SDS011;23698;52.014;5.190;2022-08-01T18:50:44;7.20;;;3.05;;
37859;SDS011;23698;52.014;5.190;2022-08-01T18:53:49;6.10;;;2.20;;